Terminal Aerodrome Forecast
Issued by NWS Wichita, KS

Home | Current Version | Previous Version | Text Only | Print | Product List | Glossary On
Versions: 1 2 3 4 5 6 7 8 9 10 11 12
000
FTUS43 KICT 041122
TAFICT
TAF
KICT 041122Z 0412/0512 19004KT P6SM FEW020 OVC070
     FM041500 18010KT P6SM VCSH SCT025 OVC050
     FM050100 14009KT P6SM VCTS SCT020 OVC040CB=

USA.gov is the U.S. government's official web portal to all federal, state and local government web resources and services.